createdAt,value
2022-08-07T00:00:23.832Z,100.00
2022-08-07T00:02:51.032Z,100.00
2022-08-07T00:05:20.004Z,100.00
2022-08-07T00:07:46.869Z,100.00
2022-08-07T00:10:25.896Z,100.00
2022-08-07T00:13:00.346Z,100.00
2022-08-07T00:15:37.967Z,100.00
2022-08-07T00:18:18.827Z,100.00
2022-08-07T00:20:47.725Z,100.00
2022-08-07T00:23:14.847Z,100.00
2022-08-07T00:25:43.460Z,100.00
2022-08-07T00:28:12.261Z,100.00
2022-08-07T00:30:42.128Z,100.00
2022-08-07T00:33:08.620Z,100.00
2022-08-07T00:35:36.714Z,100.00
2022-08-07T00:38:03.677Z,100.00
2022-08-07T00:40:36.281Z,100.00
2022-08-07T00:43:10.011Z,100.00
2022-08-07T00:45:38.207Z,100.00
2022-08-07T00:48:08.136Z,100.00
2022-08-07T00:50:46.105Z,100.00
2022-08-07T00:53:17.534Z,100.00
2022-08-07T00:56:00.524Z,100.00
2022-08-07T00:58:28.810Z,100.00
2022-08-07T01:00:55.138Z,100.00
2022-08-07T01:03:25.479Z,100.00
2022-08-07T01:06:08.257Z,100.00
2022-08-07T01:08:34.614Z,100.00
2022-08-07T01:12:04.388Z,100.00
2022-08-07T01:13:56.011Z,100.00
2022-08-07T01:16:30.230Z,100.00
2022-08-07T01:18:57.614Z,100.00
2022-08-07T01:21:27.076Z,100.00
2022-08-07T01:23:56.610Z,100.00
2022-08-07T01:26:23.383Z,100.00
2022-08-07T01:28:53.840Z,100.00
2022-08-07T01:31:20.711Z,100.00
2022-08-07T01:33:56.141Z,100.00
2022-08-07T01:36:33.796Z,100.00
2022-08-07T01:39:04.135Z,100.00
2022-08-07T01:41:37.790Z,100.00
2022-08-07T01:44:04.989Z,100.00
2022-08-07T01:46:31.526Z,100.00
2022-08-07T01:48:59.808Z,100.00
2022-08-07T01:52:02.570Z,100.00
2022-08-07T01:54:33.310Z,100.00
2022-08-07T01:57:03.849Z,100.00
2022-08-07T01:59:33.909Z,100.00
2022-08-07T02:02:06.433Z,100.00
2022-08-07T02:04:55.714Z,100.00
2022-08-07T02:07:24.021Z,100.00
2022-08-07T02:10:03.847Z,100.00
2022-08-07T02:12:33.220Z,100.00
2022-08-07T02:15:00.933Z,100.00
2022-08-07T02:17:34.000Z,100.00
2022-08-07T02:20:04.606Z,100.00
2022-08-07T02:22:38.183Z,100.00
2022-08-07T02:25:13.872Z,100.00
2022-08-07T02:27:44.255Z,100.00
2022-08-07T02:30:18.977Z,100.00
2022-08-07T02:33:00.991Z,100.00
2022-08-07T02:36:29.246Z,100.00
2022-08-07T02:38:22.828Z,100.00
2022-08-07T02:40:56.036Z,100.00
2022-08-07T02:43:22.624Z,100.00
2022-08-07T02:45:58.046Z,100.00
2022-08-07T02:48:25.955Z,100.00
2022-08-07T02:50:56.068Z,100.00
2022-08-07T02:53:27.492Z,100.00
2022-08-07T02:56:04.196Z,100.00
2022-08-07T02:58:33.229Z,100.00
2022-08-07T03:01:01.935Z,100.00
2022-08-07T03:03:49.423Z,100.00
2022-08-07T03:06:25.959Z,100.00
2022-08-07T03:09:00.815Z,100.00
2022-08-07T03:11:28.115Z,100.00
2022-08-07T03:13:57.668Z,100.00
2022-08-07T03:16:28.095Z,100.00
2022-08-07T03:18:54.655Z,100.00
2022-08-07T03:21:22.527Z,100.00
2022-08-07T03:24:19.761Z,100.00
2022-08-07T03:26:50.912Z,100.00
2022-08-07T03:29:18.692Z,100.00
2022-08-07T03:31:49.958Z,100.00
2022-08-07T03:34:18.860Z,100.00
2022-08-07T03:36:50.608Z,100.00
2022-08-07T03:39:17.665Z,100.00
2022-08-07T03:42:07.343Z,100.00
2022-08-07T03:44:35.855Z,100.00
2022-08-07T03:47:13.751Z,100.00
2022-08-07T03:49:41.915Z,100.00
2022-08-07T03:52:22.819Z,100.00
2022-08-07T03:54:57.338Z,100.00
2022-08-07T03:59:06.835Z,100.00
2022-08-07T04:00:21.129Z,100.00
2022-08-07T04:02:56.722Z,100.00
2022-08-07T04:05:28.636Z,100.00
2022-08-07T04:08:05.639Z,100.00
2022-08-07T04:10:32.644Z,100.00
2022-08-07T04:13:07.535Z,100.00
2022-08-07T04:15:42.944Z,100.00
2022-08-07T04:18:57.225Z,100.00
2022-08-07T04:20:57.652Z,100.00
2022-08-07T04:23:25.146Z,100.00
2022-08-07T04:26:10.457Z,100.00
2022-08-07T04:28:37.939Z,100.00
2022-08-07T04:31:04.590Z,100.00
2022-08-07T04:33:35.365Z,100.00
2022-08-07T04:36:02.238Z,100.00
2022-08-07T04:38:33.103Z,100.00
2022-08-07T04:41:00.458Z,100.00
2022-08-07T04:44:14.560Z,100.00
2022-08-07T04:46:25.855Z,100.00
2022-08-07T04:49:07.407Z,100.00
2022-08-07T04:51:52.513Z,100.00
2022-08-07T04:54:30.244Z,100.00
2022-08-07T04:58:15.416Z,100.00
2022-08-07T05:00:14.574Z,100.00
2022-08-07T05:03:17.028Z,100.00
2022-08-07T05:06:19.195Z,100.00
2022-08-07T05:09:01.585Z,100.00
2022-08-07T05:11:57.388Z,100.00
2022-08-07T05:14:53.261Z,100.00
2022-08-07T05:17:11.904Z,100.00
2022-08-07T05:19:44.735Z,100.00
2022-08-07T05:22:12.911Z,100.00
2022-08-07T05:24:55.533Z,100.00
2022-08-07T05:28:02.942Z,100.00
2022-08-07T05:30:10.649Z,100.00
2022-08-07T05:32:39.352Z,100.00
2022-08-07T05:35:07.453Z,100.00
2022-08-07T05:37:37.716Z,100.00
2022-08-07T05:40:17.626Z,100.00
2022-08-07T05:42:55.550Z,100.00
2022-08-07T05:45:28.065Z,100.00
2022-08-07T05:48:10.557Z,100.00
2022-08-07T05:50:39.343Z,100.00
2022-08-07T05:54:13.024Z,100.00
2022-08-07T05:56:02.888Z,100.00
2022-08-07T05:58:36.943Z,100.00
2022-08-07T06:01:05.037Z,100.00
2022-08-07T06:03:56.915Z,100.00
2022-08-07T06:06:19.891Z,100.00
2022-08-07T06:08:47.041Z,100.00
2022-08-07T06:11:17.965Z,100.00
2022-08-07T06:14:12.752Z,100.00
2022-08-07T06:16:35.047Z,100.00
2022-08-07T06:19:02.998Z,100.00
2022-08-07T06:22:14.544Z,100.00
2022-08-07T06:24:46.014Z,100.00
2022-08-07T06:27:06.159Z,100.00
2022-08-07T06:29:34.868Z,100.00
2022-08-07T06:32:05.270Z,100.00
2022-08-07T06:34:31.614Z,100.00
2022-08-07T06:36:58.023Z,100.00
2022-08-07T06:40:16.244Z,100.00
2022-08-07T06:42:13.703Z,100.00
2022-08-07T06:44:40.698Z,100.00
2022-08-07T06:47:10.623Z,100.00
2022-08-07T06:49:50.969Z,100.00
2022-08-07T06:52:31.290Z,100.00
2022-08-07T06:55:32.993Z,100.00
2022-08-07T06:57:56.847Z,100.00
2022-08-07T07:00:24.441Z,100.00
2022-08-07T07:02:54.157Z,100.00
2022-08-07T07:06:05.691Z,100.00
2022-08-07T07:08:18.563Z,100.00
2022-08-07T07:10:57.124Z,100.00
2022-08-07T07:13:57.462Z,100.00
2022-08-07T07:16:27.642Z,100.00
2022-08-07T07:18:59.559Z,100.00
2022-08-07T07:22:05.490Z,100.00
2022-08-07T07:24:16.754Z,100.00
2022-08-07T07:26:49.699Z,100.00
2022-08-07T07:29:56.058Z,100.00
2022-08-07T07:32:08.647Z,100.00
2022-08-07T07:34:36.308Z,100.00
2022-08-07T07:37:21.747Z,100.00
2022-08-07T07:39:56.018Z,100.00
2022-08-07T07:42:25.767Z,100.00
2022-08-07T07:45:00.316Z,100.00
2022-08-07T07:47:27.736Z,100.00
2022-08-07T07:50:33.099Z,100.00
2022-08-07T07:52:41.649Z,100.00
2022-08-07T07:55:09.203Z,100.00
2022-08-07T07:57:50.277Z,100.00
2022-08-07T08:00:29.145Z,100.00
2022-08-07T08:03:04.870Z,100.00
2022-08-07T08:05:51.049Z,100.00
2022-08-07T08:08:35.927Z,100.00
2022-08-07T08:11:08.562Z,100.00
2022-08-07T08:13:36.751Z,100.00
2022-08-07T08:16:20.715Z,100.00
2022-08-07T08:18:54.619Z,100.00
2022-08-07T08:22:00.471Z,100.00
2022-08-07T08:24:57.075Z,100.00
2022-08-07T08:27:35.977Z,100.00
2022-08-07T08:30:05.018Z,100.00
2022-08-07T08:32:39.274Z,100.00
2022-08-07T08:35:08.031Z,100.00
2022-08-07T08:38:01.012Z,100.00
2022-08-07T08:40:40.327Z,100.00
2022-08-07T08:43:42.431Z,100.00
2022-08-07T08:46:15.365Z,100.00
2022-08-07T08:48:50.900Z,100.00
2022-08-07T08:52:12.682Z,98.21
2022-08-07T08:54:35.067Z,98.90
2022-08-07T08:57:04.217Z,90.79
2022-08-07T08:59:47.867Z,95.22
2022-08-07T09:02:38.055Z,100.00
2022-08-07T09:05:04.482Z,100.00
2022-08-07T09:07:46.163Z,100.00
2022-08-07T09:10:27.033Z,100.00
2022-08-07T09:13:02.187Z,100.00
2022-08-07T09:16:24.319Z,100.00
2022-08-07T09:18:23.377Z,100.00
2022-08-07T09:21:13.809Z,100.00
2022-08-07T09:24:31.770Z,100.00
2022-08-07T09:27:13.511Z,100.00
2022-08-07T09:30:05.593Z,100.00
2022-08-07T09:32:32.340Z,100.00
2022-08-07T09:35:04.809Z,100.00
2022-08-07T09:37:58.310Z,100.00
2022-08-07T09:40:30.039Z,100.00
2022-08-07T09:43:00.264Z,100.00
2022-08-07T09:47:25.812Z,100.00
2022-08-07T09:48:20.532Z,100.00
2022-08-07T09:51:02.577Z,100.00
2022-08-07T09:53:40.455Z,100.00
2022-08-07T09:56:19.746Z,100.00
2022-08-07T09:59:00.528Z,100.00
2022-08-07T10:01:50.954Z,100.00
2022-08-07T10:04:39.291Z,100.00
2022-08-07T10:07:31.723Z,100.00
2022-08-07T10:10:01.131Z,100.00
2022-08-07T10:13:10.992Z,100.00
2022-08-07T10:15:44.803Z,100.00
2022-08-07T10:18:20.303Z,100.00
2022-08-07T10:21:19.799Z,100.00
2022-08-07T10:24:21.617Z,100.00
2022-08-07T10:27:03.053Z,100.00
2022-08-07T10:29:45.628Z,100.00
2022-08-07T10:32:16.441Z,100.00
2022-08-07T10:35:04.118Z,100.00
2022-08-07T10:37:48.601Z,100.00
2022-08-07T10:40:30.050Z,100.00
2022-08-07T10:43:02.656Z,100.00
2022-08-07T10:45:45.295Z,100.00
2022-08-07T10:48:25.938Z,100.00
2022-08-07T10:51:16.838Z,100.00
2022-08-07T10:54:08.303Z,100.00
2022-08-07T10:56:54.892Z,100.00
2022-08-07T10:59:30.477Z,100.00
2022-08-07T11:02:33.611Z,100.00
2022-08-07T11:05:10.151Z,100.00
2022-08-07T11:07:59.206Z,90.65
2022-08-07T11:10:27.710Z,75.40
2022-08-07T11:14:42.344Z,67.27
2022-08-07T11:15:57.264Z,65.61
2022-08-07T11:18:32.626Z,69.70
2022-08-07T11:21:25.068Z,77.14
2022-08-07T11:24:14.852Z,89.23
2022-08-07T11:26:51.073Z,97.00
2022-08-07T11:29:40.911Z,100.00
2022-08-07T11:32:11.660Z,100.00
2022-08-07T11:34:56.322Z,100.00
2022-08-07T11:37:58.019Z,100.00
2022-08-07T11:40:35.824Z,100.00
2022-08-07T11:43:15.598Z,100.00
2022-08-07T11:45:53.122Z,100.00
2022-08-07T11:48:35.354Z,100.00
2022-08-07T11:51:11.960Z,100.00
2022-08-07T11:54:02.368Z,100.00
2022-08-07T11:56:39.219Z,100.00
2022-08-07T12:00:11.639Z,100.00
2022-08-07T12:02:31.273Z,100.00
2022-08-07T12:05:09.032Z,100.00
2022-08-07T12:07:53.690Z,100.00
2022-08-07T12:10:41.963Z,100.00
2022-08-07T12:13:17.212Z,100.00
2022-08-07T12:16:06.769Z,100.00
2022-08-07T12:18:45.128Z,100.00
2022-08-07T12:21:14.929Z,100.00
2022-08-07T12:24:06.352Z,100.00
2022-08-07T12:26:34.468Z,100.00
2022-08-07T12:29:37.594Z,100.00
2022-08-07T12:32:14.404Z,100.00
2022-08-07T12:34:49.374Z,100.00
2022-08-07T12:37:28.322Z,100.00
2022-08-07T12:40:43.677Z,100.00
2022-08-07T12:43:00.658Z,100.00
2022-08-07T12:45:33.443Z,100.00
2022-08-07T12:48:27.940Z,100.00
2022-08-07T12:51:17.688Z,100.00
2022-08-07T12:54:03.117Z,94.24
2022-08-07T12:56:50.934Z,95.50
2022-08-07T12:59:23.112Z,73.92
2022-08-07T13:02:09.896Z,74.78
2022-08-07T13:05:01.222Z,72.33
2022-08-07T13:08:14.054Z,74.25
2022-08-07T13:10:51.582Z,78.62
2022-08-07T13:13:49.096Z,77.52
2022-08-07T13:16:22.709Z,80.07
2022-08-07T13:19:11.408Z,81.64
2022-08-07T13:21:59.763Z,77.46
2022-08-07T13:24:37.053Z,61.95
2022-08-07T13:27:13.170Z,54.73
2022-08-07T13:29:57.883Z,47.88
2022-08-07T13:32:32.507Z,47.40
2022-08-07T13:35:08.772Z,45.73
2022-08-07T13:37:59.063Z,45.83
2022-08-07T13:40:36.488Z,50.27
2022-08-07T13:43:11.773Z,53.55
2022-08-07T13:46:11.494Z,54.13
2022-08-07T13:48:34.248Z,49.40
2022-08-07T13:51:02.612Z,49.74
2022-08-07T13:53:59.313Z,46.25
2022-08-07T13:56:40.505Z,41.83
2022-08-07T13:59:20.740Z,41.45
2022-08-07T14:02:04.162Z,43.38
2022-08-07T14:04:35.698Z,49.15
2022-08-07T14:07:05.866Z,45.43
2022-08-07T14:10:12.169Z,49.38
2022-08-07T14:12:30.972Z,49.21
2022-08-07T14:15:04.683Z,51.06
2022-08-07T14:18:23.706Z,52.67
2022-08-07T14:20:41.161Z,57.90
2022-08-07T14:23:58.565Z,60.54
2022-08-07T14:26:30.340Z,65.48
2022-08-07T14:29:06.086Z,73.38
2022-08-07T14:31:57.804Z,80.09
2022-08-07T14:34:29.528Z,79.89
2022-08-07T14:36:56.691Z,73.29
2022-08-07T14:40:17.345Z,66.85
2022-08-07T14:42:20.690Z,69.55
2022-08-07T14:44:52.247Z,68.76
2022-08-07T14:47:19.225Z,63.11
2022-08-07T14:49:56.703Z,63.93
2022-08-07T14:52:28.867Z,71.31
2022-08-07T14:54:58.550Z,80.15
2022-08-07T14:57:54.911Z,90.04
2022-08-07T15:00:12.567Z,88.02
2022-08-07T15:02:56.878Z,77.87
2022-08-07T15:05:24.073Z,62.58
2022-08-07T15:07:52.136Z,59.60
2022-08-07T15:10:26.533Z,59.37
2022-08-07T15:13:06.161Z,62.31
2022-08-07T15:15:38.835Z,64.95
2022-08-07T15:20:58.875Z,58.06
2022-08-07T15:25:02.097Z,64.24
2022-08-07T15:26:22.128Z,70.83
2022-08-07T15:28:55.520Z,75.63
2022-08-07T15:32:01.275Z,87.80
2022-08-07T15:34:15.024Z,89.69
2022-08-07T15:37:03.479Z,82.61
2022-08-07T15:39:57.439Z,70.36
2022-08-07T15:42:43.772Z,65.52
2022-08-07T15:45:55.528Z,65.32
2022-08-07T15:48:20.605Z,68.08
2022-08-07T15:51:01.530Z,68.15
2022-08-07T15:53:42.150Z,69.44
2022-08-07T15:56:21.383Z,70.11
2022-08-07T15:58:57.775Z,75.22
2022-08-07T16:01:39.169Z,79.74
2022-08-07T16:04:14.606Z,81.87
2022-08-07T16:06:58.077Z,80.35
2022-08-07T16:09:42.271Z,78.34
2022-08-07T16:12:30.676Z,81.61
2022-08-07T16:14:59.279Z,86.86
2022-08-07T16:18:02.821Z,85.77
2022-08-07T16:20:56.760Z,93.06
2022-08-07T16:23:58.422Z,93.60
2022-08-07T16:26:30.899Z,96.46
2022-08-07T16:30:07.633Z,92.83
2022-08-07T16:32:02.094Z,86.82
2022-08-07T16:34:50.879Z,87.93
2022-08-07T16:38:06.274Z,84.27
2022-08-07T16:40:30.818Z,80.35
2022-08-07T16:43:18.872Z,83.51
2022-08-07T16:46:33.574Z,80.30
2022-08-07T16:50:20.674Z,82.67
2022-08-07T16:52:01.847Z,83.59
2022-08-07T16:54:55.517Z,88.34
2022-08-07T16:58:01.885Z,93.35
2022-08-07T17:00:29.370Z,91.44
2022-08-07T17:03:17.497Z,88.40
2022-08-07T17:06:19.413Z,85.66
2022-08-07T17:09:09.787Z,79.89
2022-08-07T17:11:26.646Z,78.68
2022-08-07T17:14:18.991Z,80.59
2022-08-07T17:16:57.039Z,81.46
2022-08-07T17:20:01.736Z,83.27
2022-08-07T17:22:18.879Z,84.56
2022-08-07T17:25:15.393Z,86.35
2022-08-07T17:27:51.031Z,86.35
2022-08-07T17:30:20.566Z,87.01
2022-08-07T17:34:09.217Z,88.13
2022-08-07T17:36:00.687Z,93.25
2022-08-07T17:38:35.285Z,96.56
2022-08-07T17:42:02.257Z,95.89
2022-08-07T17:44:01.070Z,96.98
2022-08-07T17:46:34.360Z,99.63
2022-08-07T17:49:13.981Z,100.00
2022-08-07T17:52:00.368Z,100.00
2022-08-07T17:54:54.578Z,100.00
2022-08-07T17:57:31.992Z,100.00
2022-08-07T18:00:32.765Z,100.00
2022-08-07T18:03:09.094Z,100.00
2022-08-07T18:06:03.302Z,100.00
2022-08-07T18:08:31.065Z,100.00
2022-08-07T18:12:17.346Z,100.00
2022-08-07T18:14:10.255Z,100.00
2022-08-07T18:16:57.618Z,100.00
2022-08-07T18:21:10.003Z,100.00
2022-08-07T18:22:27.421Z,100.00
2022-08-07T18:25:01.547Z,100.00
2022-08-07T18:27:54.909Z,100.00
2022-08-07T18:30:31.691Z,100.00
2022-08-07T18:33:18.456Z,100.00
2022-08-07T18:35:51.790Z,100.00
2022-08-07T18:38:56.626Z,100.00
2022-08-07T18:41:16.880Z,100.00
2022-08-07T18:43:49.199Z,100.00
2022-08-07T18:46:24.727Z,100.00
2022-08-07T18:50:32.756Z,100.00
2022-08-07T18:52:34.632Z,100.00
2022-08-07T18:54:32.597Z,100.00
2022-08-07T18:57:29.737Z,100.00
2022-08-07T18:59:59.406Z,100.00
2022-08-07T19:02:36.846Z,100.00
2022-08-07T19:05:22.288Z,100.00
2022-08-07T19:07:57.413Z,100.00
2022-08-07T19:10:31.070Z,100.00
2022-08-07T19:13:10.140Z,100.00
2022-08-07T19:17:05.708Z,100.00
2022-08-07T19:19:08.158Z,100.00
2022-08-07T19:21:55.872Z,100.00
2022-08-07T19:24:46.294Z,100.00
2022-08-07T19:28:29.979Z,100.00
2022-08-07T19:31:02.070Z,100.00
2022-08-07T19:33:01.447Z,100.00
2022-08-07T19:35:37.664Z,100.00
2022-08-07T19:38:16.108Z,100.00
2022-08-07T19:40:50.758Z,100.00
2022-08-07T19:43:48.888Z,100.00
2022-08-07T19:46:26.301Z,100.00
2022-08-07T19:48:59.546Z,100.00
2022-08-07T19:51:52.187Z,100.00
2022-08-07T19:54:35.607Z,100.00
2022-08-07T19:58:01.693Z,100.00
2022-08-07T19:59:53.428Z,100.00
2022-08-07T20:02:28.949Z,100.00
2022-08-07T20:04:56.533Z,100.00
2022-08-07T20:07:47.855Z,100.00
2022-08-07T20:10:37.290Z,100.00
2022-08-07T20:13:22.522Z,100.00
2022-08-07T20:15:50.483Z,100.00
2022-08-07T20:18:18.157Z,100.00
2022-08-07T20:20:46.272Z,100.00
2022-08-07T20:23:40.615Z,100.00
2022-08-07T20:26:09.957Z,100.00
2022-08-07T20:28:38.025Z,100.00
2022-08-07T20:31:21.333Z,100.00
2022-08-07T20:33:50.846Z,100.00
2022-08-07T20:36:23.775Z,100.00
2022-08-07T20:39:00.868Z,100.00
2022-08-07T20:41:40.692Z,100.00
2022-08-07T20:44:10.290Z,100.00
2022-08-07T20:46:44.270Z,100.00
2022-08-07T20:49:57.867Z,100.00
2022-08-07T20:51:58.797Z,100.00
2022-08-07T20:54:30.184Z,100.00
2022-08-07T20:57:02.916Z,100.00
2022-08-07T21:00:08.102Z,100.00
2022-08-07T21:02:38.264Z,100.00
2022-08-07T21:05:10.250Z,100.00
2022-08-07T21:07:43.515Z,100.00
2022-08-07T21:10:25.145Z,100.00
2022-08-07T21:12:57.903Z,100.00
2022-08-07T21:15:47.759Z,100.00
2022-08-07T21:18:20.363Z,100.00
2022-08-07T21:20:57.434Z,100.00
2022-08-07T21:23:49.455Z,100.00
2022-08-07T21:26:42.864Z,100.00
2022-08-07T21:29:18.238Z,100.00
2022-08-07T21:32:47.429Z,100.00
2022-08-07T21:34:59.610Z,100.00
2022-08-07T21:37:57.278Z,100.00
2022-08-07T21:40:30.892Z,100.00
2022-08-07T21:43:07.632Z,100.00
2022-08-07T21:46:08.084Z,100.00
2022-08-07T21:48:55.833Z,100.00
2022-08-07T21:51:24.999Z,100.00
2022-08-07T21:53:54.056Z,100.00
2022-08-07T21:56:35.879Z,100.00
2022-08-07T21:59:06.604Z,100.00
2022-08-07T22:02:11.387Z,100.00
2022-08-07T22:04:27.957Z,100.00
2022-08-07T22:06:57.872Z,100.00
2022-08-07T22:09:31.455Z,100.00
2022-08-07T22:12:14.242Z,100.00
2022-08-07T22:14:59.893Z,100.00
2022-08-07T22:17:36.251Z,100.00
2022-08-07T22:20:26.639Z,100.00
2022-08-07T22:23:01.625Z,100.00
2022-08-07T22:25:39.385Z,100.00
2022-08-07T22:28:40.751Z,100.00
2022-08-07T22:31:45.202Z,100.00
2022-08-07T22:34:17.284Z,100.00
2022-08-07T22:37:05.614Z,100.00
2022-08-07T22:39:58.601Z,100.00
2022-08-07T22:42:29.606Z,100.00
2022-08-07T22:44:59.901Z,100.00
2022-08-07T22:47:41.136Z,100.00
2022-08-07T22:50:20.929Z,100.00
2022-08-07T22:53:15.159Z,100.00
2022-08-07T22:55:50.909Z,100.00
2022-08-07T22:58:28.932Z,100.00
2022-08-07T23:01:06.305Z,100.00
2022-08-07T23:03:57.368Z,100.00
2022-08-07T23:06:43.651Z,100.00
2022-08-07T23:10:04.562Z,100.00
2022-08-07T23:12:09.637Z,100.00
2022-08-07T23:14:47.452Z,100.00
2022-08-07T23:17:20.205Z,100.00
2022-08-07T23:20:05.112Z,100.00
2022-08-07T23:22:31.738Z,100.00
2022-08-07T23:25:16.599Z,100.00
2022-08-07T23:28:21.879Z,100.00
2022-08-07T23:31:07.079Z,100.00
2022-08-07T23:34:33.461Z,100.00
2022-08-07T23:36:32.706Z,100.00
2022-08-07T23:39:22.513Z,100.00
2022-08-07T23:42:05.038Z,100.00
2022-08-07T23:44:40.908Z,100.00
2022-08-07T23:47:19.730Z,100.00
2022-08-07T23:49:51.193Z,100.00
2022-08-07T23:53:01.819Z,100.00
2022-08-07T23:55:51.677Z,100.00
2022-08-07T23:58:18.595Z,100.00
